This is the latest recevied weather packets stored in our database for station/object JH0FOG-13. If no packets are shown the sender has not sent any weather packets the latest 1 day(s).
| Time | Temp. | Humidity | Pressure | Rain* | Wind** | Luminosity | Snow |
|---|---|---|---|---|---|---|---|
| 1836274376 | 29.44° C | 67% | 1007.7 hPa | 0 mm | 0 m/s | - | - |
| 1778050801 | 21.11° C | 51% | 1017.4 hPa | 0 mm | 1.34 m/s, 326° | - | - |
| 1778049601 | 21.11° C | 51% | 1017.1 hPa | 0 mm | 0.89 m/s, 325° | - | - |
| 1778048401 | 21.11° C | 50% | 1017.2 hPa | 0 mm | 1.34 m/s, 325° | - | - |
| 1778047201 | 21.11° C | 52% | 1017.5 hPa | 0 mm | 1.34 m/s, 315° | - | - |
| 1778046001 | 21.67° C | 52% | 1017.4 hPa | 0 mm | 0.89 m/s, 331° | - | - |
| 1778044801 | 22.78° C | 51% | 1017.2 hPa | 0 mm | 0.89 m/s, 318° | - | - |
| 1778043601 | 22.78° C | 49% | 1017 hPa | 0 mm | 1.79 m/s, 315° | - | - |
| 1778042401 | 22.78° C | 47% | 1017.6 hPa | 0 mm | 2.24 m/s, 318° | - | - |
| 1778041201 | 23.33° C | 48% | 1017.8 hPa | 0 mm | 1.79 m/s, 319° | - | - |
| 1778040001 | 23.89° C | 46% | 1017.7 hPa | 0 mm | 1.79 m/s, 319° | - | - |
| 1778038801 | 25.56° C | 33% | 1018 hPa | 0 mm | 0.45 m/s, 21° | - | - |
| 1778037601 | 24.44° C | 34% | 1018.1 hPa | 0 mm | 0.89 m/s, 335° | - | - |
| 1778036401 | 25.56° C | 33% | 1018.1 hPa | 0 mm | 0.45 m/s, 352° | - | - |
| 1778035201 | 25.56° C | 30% | 1018.2 hPa | 0 mm | 0.45 m/s, 114° | - | - |
| 1778034001 | 24.44° C | 36% | 1018.6 hPa | 0 mm | 0.45 m/s, 336° | - | - |
| 1778032801 | 23.89° C | 36% | 1019 hPa | 0 mm | 0.89 m/s, 338° | - | - |
| 1778031601 | 23.33° C | 43% | 1019.2 hPa | 0 mm | 0.89 m/s, 326° | - | - |
| 1778030401 | 22.78° C | 47% | 1019.6 hPa | 0 mm | 0.45 m/s, 355° | - | - |
| 1778029201 | 21.67° C | 50% | 1020 hPa | 0 mm | 0.89 m/s, 334° | - | - |
| 1778028001 | 20.56° C | 50% | 1020.3 hPa | 0 mm | 0.89 m/s, 325° | - | - |
| 1778026801 | 19.44° C | 53% | 1020.6 hPa | 0 mm | 1.34 m/s, 323° | - | - |
| 1778025601 | 19.44° C | 56% | 1020.4 hPa | 0 mm | 0.89 m/s, 325° | - | - |
| 1778024401 | 18.33° C | 62% | 1020.4 hPa | 0 mm | 1.34 m/s, 322° | - | - |
| 1778023201 | 18.33° C | 60% | 1020.6 hPa | 0 mm | 1.34 m/s, 323° | - | - |
* Rain latest hour (hover to see other rain measurements)
** Current wind speed in m/s (hover to see current wind gust speed)